Terminal Aerodrome Forecast
Issued by NWS Twin Cities, MN

Home | Current Version | Previous Version | Graphics & Text | Print | Product List | Glossary On
Versions: 1 2 3 4 5 6 7 8 9 10 11 12 13 14 15 16
000
FTUS43 KMPX 030520
TAFSTC
TAF
KSTC 030520Z 0306/0406 16012KT P6SM -SN FEW070 BKN100
     FM030800 16012KT 3SM -SN BR OVC025
     FM031000 15008KT 1 1/2SM -SN OVC010
     FM031300 18007KT 1/2SM SN VV005
     FM031500 25013G18KT 1 1/2SM -SN OVC010
     FM032000 31021G30KT 5SM BLSN FEW007 BKN040
     FM040100 30015G25KT P6SM SKC=

USA.gov is the U.S. government's official web portal to all federal, state and local government web resources and services.